Time;durP1;ratioP1;P1;durP2;ratioP2;P2;SDS_P1;SDS_P2;PMS_P1;PMS_P2;Temp;Humidity;BMP_temperature;BMP_pressure;BME280_temperature;BME280_humidity;BME280_pressure;Samples;Min_cycle;Max_cycle;Signal;HPM_P1;HPM_P2
2024/03/20 00:00:36;;;;;;;1999.90;999.90;;;12.90;99.90;;;;;;5033401;28;20040;-71
2024/03/20 00:03:02;;;;;;;1999.90;999.90;;;12.70;99.90;;;;;;5033591;28;20037;-71
2024/03/20 00:05:29;;;;;;;1999.90;999.90;;;12.70;99.90;;;;;;5033568;28;20045;-71
2024/03/20 00:07:55;;;;;;;1999.90;999.90;;;12.90;99.90;;;;;;5034698;28;20042;-75
2024/03/20 00:10:22;;;;;;;1999.90;999.90;;;12.90;99.90;;;;;;5034068;28;20034;-75
2024/03/20 00:12:48;;;;;;;1999.90;999.90;;;12.90;99.90;;;;;;5034500;28;20060;-75
2024/03/20 00:15:14;;;;;;;1999.90;999.90;;;13.00;99.90;;;;;;5033381;28;20394;-75
2024/03/20 00:17:40;;;;;;;1999.90;999.90;;;13.00;99.90;;;;;;5034197;28;20033;-75
2024/03/20 00:20:07;;;;;;;1999.90;999.90;;;13.00;99.90;;;;;;5032466;28;20596;-76
2024/03/20 00:22:35;;;;;;;1999.90;999.90;;;13.00;99.90;;;;;;5034303;28;20494;-75
2024/03/20 00:25:01;;;;;;;1999.90;999.90;;;13.00;99.90;;;;;;5034175;28;20040;-75
2024/03/20 00:27:27;;;;;;;1999.90;999.90;;;13.00;99.90;;;;;;5033748;28;20485;-76
2024/03/20 00:29:54;;;;;;;1999.90;999.90;;;13.00;99.90;;;;;;5034023;28;20040;-75
2024/03/20 00:32:20;;;;;;;1999.90;999.90;;;13.00;99.90;;;;;;5033330;28;20029;-75
2024/03/20 00:34:46;;;;;;;1999.90;999.90;;;13.00;99.90;;;;;;5033888;28;20064;-75
2024/03/20 00:37:12;;;;;;;1999.90;999.90;;;13.00;99.90;;;;;;5033633;28;20025;-75
2024/03/20 00:39:39;;;;;;;1999.90;999.90;;;13.00;99.90;;;;;;5033992;28;20029;-75
2024/03/20 00:42:05;;;;;;;1999.90;999.90;;;13.00;99.90;;;;;;5033298;28;20065;-75
2024/03/20 00:44:31;;;;;;;1999.90;999.90;;;13.00;99.90;;;;;;5033733;28;20052;-75
2024/03/20 00:46:57;;;;;;;1999.90;999.90;;;12.90;99.90;;;;;;5032670;28;20040;-76
2024/03/20 00:49:23;;;;;;;1999.90;999.90;;;13.00;99.90;;;;;;5033365;28;20029;-75
2024/03/20 00:51:49;;;;;;;1999.90;999.90;;;13.00;99.90;;;;;;5033375;28;20382;-75
2024/03/20 00:54:16;;;;;;;1999.90;999.90;;;12.90;99.90;;;;;;5033804;28;20379;-76
2024/03/20 00:56:42;;;;;;;1999.90;999.90;;;12.80;99.90;;;;;;5032989;28;20053;-76
2024/03/20 00:59:08;;;;;;;1999.90;999.90;;;12.80;99.90;;;;;;5033669;28;20022;-75
2024/03/20 01:01:34;;;;;;;1999.90;999.90;;;12.80;99.90;;;;;;5032728;28;20048;-76
2024/03/20 01:04:00;;;;;;;1999.90;999.90;;;12.80;99.90;;;;;;5033166;28;20462;-76
2024/03/20 01:06:26;;;;;;;1999.90;999.90;;;12.50;99.90;;;;;;5031901;28;20030;-75
2024/03/20 01:08:52;;;;;;;1999.90;999.90;;;12.30;99.90;;;;;;5033312;28;20029;-75
2024/03/20 01:11:19;;;;;;;1999.90;999.90;;;12.20;99.90;;;;;;5032691;28;20048;-71
2024/03/20 01:13:45;;;;;;;1999.90;999.90;;;12.20;99.90;;;;;;5048360;28;20048;-71
2024/03/20 01:16:11;;;;;;;1999.90;999.90;;;12.30;99.90;;;;;;5032620;28;20056;-71
2024/03/20 01:18:37;;;;;;;1999.90;999.90;;;12.40;99.90;;;;;;5032486;28;20033;-71
2024/03/20 01:21:05;;;;;;;1999.90;999.90;;;12.50;99.90;;;;;;5031784;28;20048;-72
2024/03/20 01:23:31;;;;;;;1999.90;999.90;;;12.40;99.90;;;;;;5033218;28;20042;-71
2024/03/20 01:25:57;;;;;;;1999.90;999.90;;;12.40;99.90;;;;;;5032557;28;20040;-71
2024/03/20 01:28:27;;;;;;;1999.90;999.90;;;12.30;99.90;;;;;;5033247;28;20029;-71
2024/03/20 01:30:56;;;;;;;1999.90;999.90;;;12.20;99.90;;;;;;5032264;28;20036;-71
2024/03/20 01:33:22;;;;;;;1999.90;999.90;;;12.20;99.90;;;;;;5032682;28;20029;-72
2024/03/20 01:35:48;;;;;;;1999.90;999.90;;;12.20;99.90;;;;;;5031440;28;20056;-71
2024/03/20 01:38:14;;;;;;;1999.90;999.90;;;12.30;99.90;;;;;;5032969;28;20033;-71
2024/03/20 01:40:40;;;;;;;1999.90;999.90;;;12.30;99.90;;;;;;5032616;28;20096;-72
2024/03/20 01:43:19;;;;;;;1999.90;999.90;;;12.30;99.90;;;;;;5032802;28;20054;-72
2024/03/20 01:45:46;;;;;;;1999.90;999.90;;;12.30;99.90;;;;;;5031749;28;20038;-71
2024/03/20 01:48:13;;;;;;;1999.90;999.90;;;12.20;99.90;;;;;;5032326;28;20021;-71
2024/03/20 01:50:40;;;;;;;1999.90;999.90;;;12.20;99.90;;;;;;5030984;28;20046;-71
2024/03/20 01:53:06;;;;;;;38.53;36.67;;;12.10;99.90;;;;;;5032843;28;20029;-71
2024/03/20 01:55:32;;;;;;;29.85;28.35;;;11.90;99.90;;;;;;5031107;28;20481;-71
2024/03/20 01:57:58;;;;;;;44.78;42.65;;;11.90;99.90;;;;;;5032611;28;20029;-71
2024/03/20 02:00:27;;;;;;;40.17;38.28;;;11.90;99.90;;;;;;5031515;28;20056;-71
2024/03/20 02:02:59;;;;;;;28.80;27.40;;;12.00;99.90;;;;;;5032631;28;20045;-71
2024/03/20 02:05:27;;;;;;;59.58;56.75;;;12.00;99.90;;;;;;5031992;28;20042;-71
2024/03/20 02:07:56;;;;;;;95.68;91.10;;;12.10;99.90;;;;;;5047339;28;20057;-71
2024/03/20 02:10:22;;;;;;;28.67;27.35;;;12.10;99.90;;;;;;5032215;28;20029;-71
2024/03/20 02:12:59;;;;;;;27.23;25.92;;;12.10;99.90;;;;;;5032671;28;20057;-71
2024/03/20 02:15:26;;;;;;;39.85;37.95;;;12.10;99.90;;;;;;5031307;28;20479;-71
2024/03/20 02:17:52;;;;;;;37.10;35.33;;;12.10;99.90;;;;;;5030376;28;20045;-71
2024/03/20 02:20:18;;;;;;;34.50;32.85;;;12.20;99.90;;;;;;5031733;28;20041;-71
2024/03/20 02:22:44;;;;;;;29.65;28.25;;;12.10;99.90;;;;;;5031582;28;20470;-71
2024/03/20 02:25:11;;;;;;;28.75;27.40;;;12.10;99.90;;;;;;5031794;28;20045;-72
2024/03/20 02:27:37;;;;;;;52.10;49.58;;;12.10;99.90;;;;;;5032396;28;20034;-71
2024/03/20 02:30:08;;;;;;;48.33;45.97;;;12.00;99.90;;;;;;5031346;28;20052;-71
2024/03/20 02:32:37;;;;;;;30.45;28.98;;;12.00;99.90;;;;;;5047208;28;20509;-72
2024/03/20 02:35:04;;;;;;;24.02;22.92;;;11.90;99.90;;;;;;5030909;28;20119;-71
2024/03/20 02:37:30;;;;;;;25.83;24.60;;;11.90;99.90;;;;;;5031827;28;20048;-71
2024/03/20 02:39:56;;;;;;;29.73;28.35;;;11.80;99.90;;;;;;5032223;28;20029;-71
2024/03/20 02:42:22;;;;;;;39.22;37.40;;;11.90;99.90;;;;;;5031430;28;20056;-72
2024/03/20 02:44:52;;;;;;;28.95;27.63;;;11.90;99.90;;;;;;5031280;28;20056;-72
2024/03/20 02:47:18;;;;;;;27.50;26.23;;;11.90;99.90;;;;;;5030119;28;20406;-71
2024/03/20 02:49:46;;;;;;;26.30;25.08;;;11.90;99.90;;;;;;5031121;28;20485;-71
2024/03/20 02:52:12;;;;;;;30.13;28.73;;;11.80;99.90;;;;;;5031561;28;20045;-71
2024/03/20 02:54:38;;;;;;;22.63;21.58;;;11.80;99.90;;;;;;5030768;28;20025;-71
2024/03/20 02:57:04;;;;;;;22.95;21.85;;;11.80;99.90;;;;;;5031576;28;20387;-72
2024/03/20 02:59:31;;;;;;;36.00;34.30;;;11.80;99.90;;;;;;5031263;28;20037;-71
2024/03/20 03:01:57;;;;;;;28.30;27.00;;;11.80;99.90;;;;;;5029430;28;20033;-71
2024/03/20 03:04:23;;;;;;;40.53;38.63;;;11.80;99.90;;;;;;5025511;28;20111;-71
2024/03/20 03:06:49;;;;;;;57.83;55.03;;;11.70;99.90;;;;;;5027422;28;20045;-71
2024/03/20 03:09:17;;;;;;;75.20;71.53;;;11.70;99.90;;;;;;5030899;28;20029;-71
2024/03/20 03:11:46;;;;;;;81.00;77.07;;;11.40;99.90;;;;;;5030318;28;20378;-71
2024/03/20 03:14:13;;;;;;;98.97;94.18;;;11.10;99.90;;;;;;5030152;28;20057;-71
2024/03/20 03:16:39;;;;;;;76.65;72.93;;;11.10;99.90;;;;;;5027923;28;20124;-75
2024/03/20 03:19:06;;;;;;;36.75;35.03;;;11.30;99.90;;;;;;5030121;28;20041;-74
2024/03/20 03:21:32;;;;;;;42.42;40.42;;;11.40;99.90;;;;;;5029769;28;20050;-75
2024/03/20 03:23:58;;;;;;;75.07;71.50;;;11.50;99.90;;;;;;5028688;28;20059;-75
2024/03/20 03:26:24;;;;;;;46.55;44.35;;;11.40;99.90;;;;;;5029783;28;20060;-75
2024/03/20 03:28:51;;;;;;;29.38;27.98;;;11.50;99.90;;;;;;5029692;28;20029;-75
2024/03/20 03:31:17;;;;;;;149.15;141.90;;;11.40;99.90;;;;;;5029116;28;20029;-75
2024/03/20 03:33:43;;;;;;;111.35;106.03;;;11.40;99.90;;;;;;5031877;28;20029;-75
2024/03/20 03:36:09;;;;;;;28.45;27.15;;;11.50;99.90;;;;;;5033518;28;20501;-75
2024/03/20 03:38:36;;;;;;;31.08;29.63;;;11.50;99.90;;;;;;5034510;28;20029;-75
2024/03/20 03:41:02;;;;;;;34.78;33.15;;;11.40;99.90;;;;;;5034752;28;20044;-75
2024/03/20 03:43:29;;;;;;;57.90;55.15;;;11.40;99.90;;;;;;5034281;28;20490;-75
2024/03/20 03:45:55;;;;;;;110.43;105.07;;;11.50;99.90;;;;;;5033594;28;20084;-75
2024/03/20 03:48:21;;;;;;;24.55;23.40;;;11.50;99.90;;;;;;5034898;28;20044;-75
2024/03/20 03:50:50;;;;;;;21.02;20.02;;;11.40;99.90;;;;;;5034514;28;20033;-76
2024/03/20 03:53:17;;;;;;;21.17;20.17;;;11.20;99.90;;;;;;5034795;28;20029;-75
2024/03/20 03:55:46;;;;;;;23.38;22.27;;;11.00;99.90;;;;;;5034703;28;20042;-75
2024/03/20 03:58:13;;;;;;;25.58;24.38;;;11.00;99.90;;;;;;5034484;28;20378;-75
2024/03/20 04:00:39;;;;;;;56.22;53.58;;;11.00;99.90;;;;;;5033769;28;20033;-75
2024/03/20 04:03:05;;;;;;;34.78;33.17;;;10.80;99.90;;;;;;5034662;28;20045;-75
2024/03/20 04:05:32;;;;;;;46.55;44.35;;;10.70;99.90;;;;;;5034333;28;20045;-75
2024/03/20 04:07:58;;;;;;;52.72;50.17;;;10.60;99.90;;;;;;5034519;28;20026;-75
2024/03/20 04:10:25;;;;;;;61.17;58.25;;;10.60;99.90;;;;;;5034338;28;20056;-76
2024/03/20 04:12:51;;;;;;;62.65;59.33;;;10.60;99.90;;;;;;5032805;28;20034;-75
2024/03/20 04:15:17;;;;;;;55.50;52.85;;;10.70;99.90;;;;;;5032214;28;20068;-75
2024/03/20 04:17:44;;;;;;;31.70;30.20;;;10.60;99.90;;;;;;5035056;28;20108;-75
2024/03/20 04:20:11;;;;;;;26.75;25.50;;;10.50;99.90;;;;;;5033856;28;20044;-75
2024/03/20 04:22:41;;;;;;;38.30;36.50;;;10.40;99.90;;;;;;5033994;28;20045;-73
2024/03/20 04:25:07;;;;;;;23.55;22.40;;;10.40;99.90;;;;;;5032587;28;20402;-73
2024/03/20 04:27:35;;;;;;;18.30;17.50;;;10.40;99.90;;;;;;5032938;28;20037;-73
2024/03/20 04:30:11;;;;;;;23.75;22.65;;;10.30;99.90;;;;;;5033042;28;20032;-73
2024/03/20 04:32:38;;;;;;;27.60;26.30;;;10.40;99.90;;;;;;5028986;28;20038;-73
2024/03/20 04:35:05;;;;;;;22.75;21.50;;;10.50;99.90;;;;;;5033988;28;20030;-73
2024/03/20 04:37:31;;;;;;;22.98;21.88;;;10.40;99.90;;;;;;5033067;28;20402;-73
2024/03/20 04:39:57;;;;;;;20.05;19.13;;;10.20;99.90;;;;;;5033765;28;20029;-74
2024/03/20 04:42:23;;;;;;;19.10;18.20;;;10.10;99.90;;;;;;5033693;28;20387;-73
2024/03/20 04:44:49;;;;;;;27.33;25.98;;;10.10;99.90;;;;;;5032653;28;20124;-73
2024/03/20 04:47:15;;;;;;;21.80;20.70;;;10.20;99.90;;;;;;5032773;28;20624;-73
2024/03/20 04:49:41;;;;;;;25.15;23.75;;;10.10;99.90;;;;;;5034026;28;20033;-73
2024/03/20 04:52:07;;;;;;;23.92;22.80;;;10.00;99.90;;;;;;5033490;28;20458;-73
2024/03/20 04:54:34;;;;;;;19.10;18.20;;;9.90;99.90;;;;;;5033441;28;20033;-73
2024/03/20 04:57:00;;;;;;;42.90;40.90;;;10.00;99.90;;;;;;5033240;28;20419;-74
2024/03/20 04:59:26;;;;;;;32.55;31.02;;;10.10;99.90;;;;;;5032128;28;20040;-74
2024/03/20 05:01:52;;;;;;;84.97;80.93;;;10.30;99.90;;;;;;5032735;28;20509;-73
2024/03/20 05:04:18;;;;;;;71.97;68.53;;;10.50;99.90;;;;;;5033544;28;20030;-73
2024/03/20 05:06:44;;;;;;;67.15;63.97;;;10.60;99.90;;;;;;5032923;28;20048;-73
2024/03/20 05:09:10;;;;;;;108.55;103.40;;;10.70;99.90;;;;;;5033133;28;20026;-73
2024/03/20 05:11:36;;;;;;;54.22;51.65;;;10.70;99.90;;;;;;5031749;28;20442;-73
2024/03/20 05:14:02;;;;;;;30.85;29.45;;;10.60;99.90;;;;;;5032853;28;20074;-74
2024/03/20 05:16:28;;;;;;;29.33;27.92;;;10.50;99.90;;;;;;5032726;28;20045;-73
2024/03/20 05:18:55;;;;;;;42.83;40.80;;;10.40;99.90;;;;;;5032170;28;20021;-73
2024/03/20 05:21:21;;;;;;;65.00;61.95;;;10.40;99.90;;;;;;5033007;28;20500;-73
2024/03/20 05:23:47;;;;;;;59.67;56.85;;;10.50;99.90;;;;;;5032856;28;20021;-73
2024/03/20 05:26:13;;;;;;;52.05;49.60;;;10.70;99.90;;;;;;5031503;28;20049;-75
2024/03/20 05:28:40;;;;;;;52.70;50.22;;;10.70;99.90;;;;;;5033042;28;20034;-75
2024/03/20 05:31:06;;;;;;;58.97;56.20;;;10.70;99.90;;;;;;5032170;28;20418;-74
2024/03/20 05:33:32;;;;;;;36.55;34.83;;;10.80;99.90;;;;;;5033371;28;20041;-75
2024/03/20 05:35:58;;;;;;;32.38;30.88;;;10.80;99.90;;;;;;5032581;28;20501;-75
2024/03/20 05:38:24;;;;;;;40.92;38.92;;;10.90;99.90;;;;;;5032697;28;20024;-75
2024/03/20 05:40:50;;;;;;;37.58;35.80;;;10.90;99.90;;;;;;5031300;28;20478;-75
2024/03/20 05:43:16;;;;;;;66.25;62.90;;;10.90;99.90;;;;;;5032048;28;20053;-75
2024/03/20 05:45:42;;;;;;;36.70;35.00;;;10.90;99.90;;;;;;5029917;28;20052;-75
2024/03/20 05:48:09;;;;;;;58.15;55.40;;;10.70;99.90;;;;;;5032114;28;20038;-75
2024/03/20 05:50:35;;;;;;;56.95;54.25;;;10.50;99.90;;;;;;5032592;28;20030;-75
2024/03/20 05:53:01;;;;;;;52.85;50.35;;;10.60;99.90;;;;;;5032466;28;20128;-75
2024/03/20 05:55:28;;;;;;;38.47;36.67;;;10.70;99.90;;;;;;5032506;28;20493;-75
2024/03/20 05:57:54;;;;;;;40.70;38.72;;;10.70;99.90;;;;;;5033400;28;20374;-75
2024/03/20 06:00:24;;;;;;;73.18;69.65;;;10.50;99.90;;;;;;5032061;28;20029;-75
2024/03/20 06:02:51;;;;;;;125.03;118.97;;;10.30;99.90;;;;;;5032764;28;20072;-75
2024/03/20 06:05:17;;;;;;;131.15;124.80;;;10.20;99.90;;;;;;5032230;28;20041;-75
2024/03/20 06:07:44;;;;;;;132.35;125.93;;;10.20;99.90;;;;;;5032359;28;20026;-75
2024/03/20 06:10:10;;;;;;;143.05;136.13;;;10.30;99.90;;;;;;5031113;28;20036;-75
2024/03/20 06:12:36;;;;;;;140.40;133.55;;;10.30;99.90;;;;;;5032016;28;20034;-75
2024/03/20 06:15:03;;;;;;;142.02;135.07;;;10.30;99.90;;;;;;5031853;28;20029;-74
2024/03/20 06:17:29;;;;;;;123.90;117.93;;;10.30;99.90;;;;;;5032414;28;20021;-75
2024/03/20 06:19:56;;;;;;;105.80;100.70;;;10.20;99.90;;;;;;5031131;28;20032;-75
2024/03/20 06:22:25;;;;;;;65.72;62.58;;;10.30;99.90;;;;;;5031956;28;20044;-75
2024/03/20 06:24:51;;;;;;;53.38;50.85;;;10.30;99.90;;;;;;5032346;28;20029;-75
2024/03/20 06:27:17;;;;;;;41.10;39.13;;;10.20;99.90;;;;;;5032249;28;20482;-75
2024/03/20 06:29:45;;;;;;;45.60;43.35;;;10.30;99.90;;;;;;5032121;28;20402;-75
2024/03/20 06:32:11;;;;;;;37.05;35.15;;;10.20;99.90;;;;;;5032117;28;20033;-75
2024/03/20 06:34:37;;;;;;;46.88;44.60;;;10.10;99.90;;;;;;5032355;28;20044;-75
2024/03/20 06:37:07;;;;;;;38.05;36.25;;;10.00;99.90;;;;;;5031800;28;20081;-75
2024/03/20 06:39:33;;;;;;;66.80;63.40;;;10.10;99.90;;;;;;5032391;28;20033;-75
2024/03/20 06:41:59;;;;;;;38.35;36.33;;;10.20;99.90;;;;;;5032003;28;20025;-75
2024/03/20 06:44:25;;;;;;;31.25;29.75;;;10.10;99.90;;;;;;5031677;28;20046;-75
2024/03/20 06:46:51;;;;;;;35.42;33.78;;;10.10;99.90;;;;;;5029966;28;20041;-75
2024/03/20 06:49:18;;;;;;;64.50;61.45;;;10.20;99.90;;;;;;5032147;28;20029;-75
2024/03/20 06:51:49;;;;;;;63.42;60.42;;;10.40;99.90;;;;;;5030876;28;20021;-75
2024/03/20 06:54:19;;;;;;;60.03;57.17;;;10.60;99.90;;;;;;5032004;28;20470;-75
2024/03/20 06:56:52;;;;;;;38.55;36.75;;;10.70;99.90;;;;;;5046117;28;20037;-75
2024/03/20 06:59:19;;;;;;;31.15;29.50;;;10.90;99.90;;;;;;5031981;28;20026;-75
2024/03/20 07:01:45;;;;;;;33.17;31.58;;;10.90;99.90;;;;;;5030973;28;20478;-75
2024/03/20 07:04:11;;;;;;;27.20;25.92;;;10.90;99.90;;;;;;5031732;28;20045;-75
2024/03/20 07:06:37;;;;;;;35.95;34.25;;;11.00;99.90;;;;;;5029698;28;20474;-75
2024/03/20 07:09:03;;;;;;;62.25;59.30;;;11.10;99.90;;;;;;5034598;28;20052;-71
2024/03/20 07:11:29;;;;;;;55.70;53.05;;;11.30;99.90;;;;;;5033896;28;20037;-73
2024/03/20 07:13:55;;;;;;;70.45;67.10;;;11.40;99.90;;;;;;5033785;28;20151;-73
2024/03/20 07:16:22;;;;;;;61.83;58.90;;;11.50;99.90;;;;;;5034866;28;20026;-74
2024/03/20 07:18:48;;;;;;;50.45;48.08;;;11.40;99.90;;;;;;5035453;28;20498;-74
2024/03/20 07:21:14;;;;;;;43.90;41.45;;;11.30;99.90;;;;;;5034882;28;20032;-73
2024/03/20 07:23:40;;;;;;;46.60;44.08;;;11.30;99.90;;;;;;5035456;28;20025;-73
2024/03/20 07:26:06;;;;;;;43.40;41.35;;;11.10;99.90;;;;;;5035005;28;20071;-73
2024/03/20 07:28:33;;;;;;;51.17;48.47;;;11.10;99.90;;;;;;5035345;28;20074;-73
2024/03/20 07:30:59;;;;;;;31.90;30.33;;;11.20;99.90;;;;;;5034533;28;20041;-72
2024/03/20 07:33:25;;;;;;;34.50;32.88;;;11.20;99.90;;;;;;5035260;28;20482;-72
2024/03/20 07:35:51;;;;;;;30.88;29.17;;;11.30;99.90;;;;;;5034440;28;20040;-73
2024/03/20 07:38:17;;;;;;;39.92;37.92;;;11.30;99.90;;;;;;5035168;28;20374;-73
2024/03/20 07:40:43;;;;;;;47.17;44.60;;;11.30;99.90;;;;;;5034778;28;20032;-73
2024/03/20 07:43:09;;;;;;;36.47;34.75;;;11.30;99.90;;;;;;5034906;28;20052;-73
2024/03/20 07:45:36;;;;;;;47.58;45.33;;;11.30;99.90;;;;;;5034164;28;20048;-73
2024/03/20 07:48:03;;;;;;;42.83;40.80;;;11.40;99.90;;;;;;5035187;28;20482;-73
2024/03/20 07:50:29;;;;;;;54.00;51.28;;;11.50;99.90;;;;;;5034677;28;20041;-73
2024/03/20 07:52:55;;;;;;;59.90;57.08;;;11.50;99.90;;;;;;5035000;28;20089;-73
2024/03/20 07:55:21;;;;;;;54.35;51.67;;;11.60;99.90;;;;;;5034386;28;20049;-73
2024/03/20 07:57:48;;;;;;;37.53;34.67;;;11.60;99.90;;;;;;5034947;28;20631;-72
2024/03/20 08:00:17;;;;;;;29.90;28.00;;;11.70;99.90;;;;;;5032672;28;20037;-73
2024/03/20 08:02:43;;;;;;;32.17;30.48;;;11.70;99.90;;;;;;5034301;28;20048;-73
2024/03/20 08:05:11;;;;;;;33.40;31.75;;;11.70;99.90;;;;;;5032957;28;20394;-72
2024/03/20 08:07:38;;;;;;;33.22;31.67;;;11.80;99.90;;;;;;5033426;28;20037;-73
2024/03/20 08:10:05;;;;;;;34.78;32.95;;;11.90;99.90;;;;;;5034575;28;20033;-73
2024/03/20 08:12:32;;;;;;;27.13;25.67;;;12.00;99.90;;;;;;5049522;28;20490;-75
2024/03/20 08:14:58;;;;;;;41.58;39.63;;;12.00;99.90;;;;;;5034469;28;20021;-75
2024/03/20 08:17:25;;;;;;;40.22;38.33;;;12.10;99.90;;;;;;5033108;28;20049;-75
2024/03/20 08:19:51;;;;;;;34.72;33.10;;;12.30;99.90;;;;;;5033049;28;20033;-75
2024/03/20 08:22:17;;;;;;;37.42;35.67;;;12.40;99.90;;;;;;5034234;28;20508;-75
2024/03/20 08:24:44;;;;;;;34.47;32.85;;;12.60;99.90;;;;;;5034248;28;20029;-75
2024/03/20 08:27:10;;;;;;;35.78;34.05;;;12.80;99.90;;;;;;5033793;28;20053;-75
2024/03/20 08:29:37;;;;;;;31.98;30.42;;;12.90;99.90;;;;;;5034208;28;20040;-75
2024/03/20 08:32:04;;;;;;;37.20;35.47;;;13.00;99.90;;;;;;5033357;28;20363;-75
2024/03/20 08:34:31;;;;;;;29.23;27.85;;;12.90;99.90;;;;;;5033737;28;20037;-75
2024/03/20 08:36:57;;;;;;;30.98;29.55;;;12.90;99.90;;;;;;5033530;28;20057;-75
2024/03/20 08:39:24;;;;;;;25.95;24.75;;;13.10;99.90;;;;;;5034249;28;20033;-75
2024/03/20 08:41:50;;;;;;;28.58;27.25;;;13.30;99.90;;;;;;5032385;28;20044;-75
2024/03/20 08:44:16;;;;;;;30.50;29.10;;;13.30;99.90;;;;;;5033945;28;20045;-75
2024/03/20 08:46:42;;;;;;;28.60;27.30;;;13.30;99.90;;;;;;5032580;28;20052;-75
2024/03/20 08:49:08;;;;;;;29.65;28.27;;;13.40;99.90;;;;;;5033956;28;20032;-75
2024/03/20 08:51:34;;;;;;;122.82;116.88;;;13.40;99.90;;;;;;5031901;28;20037;-75
2024/03/20 08:54:01;;;;;;;109.05;103.80;;;13.50;99.90;;;;;;5033685;28;20463;-75
2024/03/20 08:56:27;;;;;;;98.88;94.20;;;13.60;99.90;;;;;;5033457;28;20048;-74
2024/03/20 08:58:53;;;;;;;203.32;193.35;;;13.70;99.90;;;;;;5033680;28;20370;-75
2024/03/20 09:01:19;;;;;;;209.95;199.57;;;13.60;99.90;;;;;;5032346;28;20052;-75
2024/03/20 09:03:45;;;;;;;119.82;113.85;;;13.60;99.90;;;;;;5033815;28;20029;-75
2024/03/20 09:06:11;;;;;;;60.42;56.97;;;13.60;99.90;;;;;;5031003;28;20498;-75
2024/03/20 09:08:37;;;;;;;29.85;28.33;;;13.50;99.90;;;;;;5033348;28;20026;-75
2024/03/20 09:11:04;;;;;;;49.72;47.30;;;13.40;99.90;;;;;;5032980;28;20394;-76
2024/03/20 09:13:31;;;;;;;32.67;31.17;;;13.40;99.90;;;;;;5031984;28;20045;-75
2024/03/20 09:15:57;;;;;;;38.90;36.55;;;13.40;99.90;;;;;;5032196;28;20044;-75
2024/03/20 09:18:23;;;;;;;28.17;26.58;;;13.40;99.90;;;;;;5033282;28;20029;-75
2024/03/20 09:20:52;;;;;;;39.25;37.28;;;13.50;99.90;;;;;;5032843;28;20056;-71
2024/03/20 09:23:21;;;;;;;30.63;29.23;;;13.60;99.90;;;;;;5032011;28;20029;-71
2024/03/20 09:25:48;;;;;;;27.50;24.92;;;13.80;99.90;;;;;;5033279;28;20060;-71
2024/03/20 09:28:14;;;;;;;50.55;47.45;;;14.10;99.90;;;;;;5033181;28;20037;-71
2024/03/20 09:30:40;;;;;;;48.80;45.97;;;14.30;99.90;;;;;;5031652;28;20441;-71
2024/03/20 09:33:06;;;;;;;59.33;56.53;;;14.40;99.90;;;;;;5032927;28;20064;-70
2024/03/20 09:35:32;;;;;;;56.20;53.53;;;14.60;99.90;;;;;;5032329;28;20026;-71
2024/03/20 09:37:59;;;;;;;92.15;87.75;;;14.80;99.90;;;;;;5032792;28;20029;-71
2024/03/20 09:40:26;;;;;;;104.45;99.53;;;15.00;99.90;;;;;;5032566;28;20033;-71
2024/03/20 09:42:53;;;;;;;59.65;56.83;;;15.20;99.90;;;;;;5032752;28;20026;-71
2024/03/20 09:45:20;;;;;;;40.22;38.30;;;15.50;99.90;;;;;;5031124;28;20033;-72
2024/03/20 09:47:50;;;;;;;33.35;31.60;;;15.60;99.90;;;;;;5047537;28;20057;-71
2024/03/20 09:50:18;;;;;;;82.70;78.75;;;15.70;99.90;;;;;;5031297;28;20025;-72
2024/03/20 09:52:47;;;;;;;51.05;48.60;;;15.60;99.90;;;;;;5032978;28;20037;-71
2024/03/20 09:55:14;;;;;;;75.13;71.28;;;15.70;99.90;;;;;;5032291;28;20374;-71
2024/03/20 09:57:45;;;;;;;51.85;49.30;;;15.50;99.90;;;;;;5032705;28;20026;-71
2024/03/20 10:00:16;;;;;;;44.58;42.47;;;15.30;99.90;;;;;;5030563;28;20491;-71
2024/03/20 10:02:47;;;;;;;29.25;27.88;;;15.40;99.90;;;;;;5032673;28;20034;-71
2024/03/20 10:05:13;;;;;;;24.73;23.60;;;15.60;99.90;;;;;;5047346;28;20467;-71
2024/03/20 10:07:43;;;;;;;36.97;35.03;;;15.70;99.90;;;;;;5032150;28;20044;-72
2024/03/20 10:10:13;;;;;;;28.10;26.77;;;15.80;99.90;;;;;;5033075;28;20041;-71
2024/03/20 10:12:40;;;;;;;124.15;118.15;;;15.90;99.90;;;;;;5032635;28;20044;-71
2024/03/20 10:15:09;;;;;;;75.15;71.57;;;15.80;99.90;;;;;;5031661;28;20026;-71
2024/03/20 10:17:36;;;;;;;197.93;188.30;;;16.00;99.90;;;;;;5032016;28;20033;-71
2024/03/20 10:20:23;;;;;;;125.32;119.28;;;15.90;99.90;;;;;;5032603;28;20033;-72
2024/03/20 10:22:50;;;;;;;105.53;100.43;;;15.70;99.90;;;;;;5032350;28;20056;-71
2024/03/20 10:25:16;;;;;;;129.48;123.00;;;15.50;99.90;;;;;;5031866;28;20045;-71
2024/03/20 10:27:46;;;;;;;177.23;168.15;;;15.50;99.90;;;;;;5030391;28;20045;-71
2024/03/20 10:30:16;;;;;;;201.00;190.68;;;15.50;99.90;;;;;;5029850;28;20045;-71
2024/03/20 10:32:49;;;;;;;213.25;202.05;;;15.70;99.90;;;;;;5032121;28;20042;-71
2024/03/20 10:35:16;;;;;;;117.10;111.35;;;15.90;99.90;;;;;;5031397;28;20029;-72
2024/03/20 10:37:45;;;;;;;152.23;144.80;;;15.60;99.90;;;;;;5032194;28;20025;-71
2024/03/20 10:40:20;;;;;;;158.20;150.50;;;15.60;99.90;;;;;;5031972;28;20037;-71
2024/03/20 10:42:50;;;;;;;159.23;151.25;;;15.60;99.90;;;;;;5032295;28;20498;-75
2024/03/20 10:45:17;;;;;;;208.13;197.70;;;15.60;99.90;;;;;;5035189;28;20398;-75
2024/03/20 10:47:45;;;;;;;255.18;242.68;;;15.40;99.90;;;;;;5035019;28;20036;-75
2024/03/20 10:50:20;;;;;;;268.10;254.45;;;15.50;99.90;;;;;;5036610;28;20470;-75
2024/03/20 10:52:47;;;;;;;205.70;194.75;;;15.40;99.90;;;;;;5016304;28;20041;-75
2024/03/20 10:55:15;;;;;;;310.13;293.77;;;15.40;99.90;;;;;;5031482;28;20029;-75
2024/03/20 10:57:41;;;;;;;204.52;193.20;;;15.40;99.90;;;;;;5034285;28;20113;-76
2024/03/20 11:00:16;;;;;;;298.83;283.15;;;15.30;99.90;;;;;;5035433;28;20055;-75
2024/03/20 11:02:44;;;;;;;257.05;244.23;;;15.30;99.90;;;;;;5015882;28;20045;-75
2024/03/20 11:05:36;;;;;;;111.30;105.65;;;15.30;99.90;;;;;;5038755;28;20029;-75
2024/03/20 11:08:04;;;;;;;97.30;92.60;;;15.30;99.90;;;;;;5034444;28;20120;-77
2024/03/20 11:10:31;;;;;;;231.63;219.98;;;15.30;99.90;;;;;;5035571;28;20033;-74
2024/03/20 11:12:57;;;;;;;389.95;368.75;;;15.50;99.90;;;;;;5035448;28;20057;-76
2024/03/20 11:15:27;;;;;;;339.38;321.75;;;15.60;99.90;;;;;;5034742;28;20064;-75
2024/03/20 11:17:53;;;;;;;335.83;318.30;;;15.50;99.90;;;;;;5035438;28;20374;-75
2024/03/20 11:20:34;;;;;;;311.90;295.20;;;15.60;99.90;;;;;;5035350;28;20028;-75
2024/03/20 11:23:05;;;;;;;357.25;338.38;;;15.60;99.90;;;;;;5035505;28;20378;-75
2024/03/20 11:25:34;;;;;;;275.20;261.50;;;15.70;99.90;;;;;;5035062;28;20470;-75
2024/03/20 11:28:00;;;;;;;234.75;223.18;;;15.90;99.90;;;;;;5034039;28;20038;-75
2024/03/20 11:30:27;;;;;;;1542.45;790.38;;;16.10;99.90;;;;;;5033318;28;20040;-73
2024/03/20 11:32:53;;;;;;;1999.90;999.90;;;16.10;99.90;;;;;;5035080;28;20026;-75
2024/03/20 11:35:20;;;;;;;1999.90;999.90;;;16.10;99.90;;;;;;5033382;28;20041;-75
2024/03/20 11:37:47;;;;;;;1999.90;999.90;;;16.00;99.90;;;;;;5034256;28;20049;-75
2024/03/20 11:40:13;;;;;;;1999.90;999.90;;;16.00;99.90;;;;;;5033504;28;20490;-75
2024/03/20 11:42:40;;;;;;;1999.90;999.90;;;16.10;99.90;;;;;;5033673;28;20033;-75
2024/03/20 11:45:08;;;;;;;1999.90;999.90;;;16.10;99.90;;;;;;5034777;28;20058;-75
2024/03/20 11:47:34;;;;;;;1999.90;999.90;;;16.20;99.90;;;;;;5034633;28;20052;-75
2024/03/20 11:50:00;;;;;;;1999.90;999.90;;;16.30;99.90;;;;;;5034624;28;20025;-75
2024/03/20 11:52:27;;;;;;;1999.90;999.90;;;16.40;99.90;;;;;;5034649;28;20040;-74
2024/03/20 11:54:53;;;;;;;1999.90;999.90;;;16.30;99.90;;;;;;5033090;28;20029;-75
2024/03/20 11:57:20;;;;;;;1999.90;999.90;;;16.20;99.90;;;;;;5034352;28;20068;-75
2024/03/20 11:59:46;;;;;;;1999.90;999.90;;;16.20;99.90;;;;;;5034840;28;20022;-75
2024/03/20 12:02:14;;;;;;;1999.90;999.90;;;16.20;99.90;;;;;;5033927;28;20045;-73
2024/03/20 12:04:42;;;;;;;1999.90;999.90;;;16.30;99.90;;;;;;5034241;28;20032;-73
2024/03/20 12:07:28;;;;;;;1999.90;999.90;;;16.50;99.90;;;;;;5034083;28;20045;-72
2024/03/20 12:09:55;;;;;;;1999.90;999.90;;;16.60;99.90;;;;;;5034076;28;20036;-73
2024/03/20 12:12:22;;;;;;;1999.90;999.90;;;16.60;99.90;;;;;;5033823;28;20041;-73
2024/03/20 12:14:49;;;;;;;1999.90;999.90;;;16.70;99.90;;;;;;5034430;28;20053;-73
2024/03/20 12:17:15;;;;;;;1999.90;999.90;;;16.70;99.90;;;;;;5032614;28;20042;-72